sensor_id;sensor_type;location;lat;lon;timestamp;temperature;humidity
23114;DHT22;11726;50.122;8.832;2022-11-11T00:01:04;6.60;99.90
23114;DHT22;11726;50.122;8.832;2022-11-11T00:03:31;6.60;99.90
23114;DHT22;11726;50.122;8.832;2022-11-11T00:06:03;6.60;99.90
23114;DHT22;11726;50.122;8.832;2022-11-11T00:08:30;6.70;99.90
23114;DHT22;11726;50.122;8.832;2022-11-11T00:11:08;6.70;99.90
23114;DHT22;11726;50.122;8.832;2022-11-11T00:13:36;6.70;99.90
23114;DHT22;11726;50.122;8.832;2022-11-11T00:16:12;6.60;99.90
23114;DHT22;11726;50.122;8.832;2022-11-11T00:18:40;6.50;99.90
23114;DHT22;11726;50.122;8.832;2022-11-11T00:21:26;6.30;99.90
23114;DHT22;11726;50.122;8.832;2022-11-11T00:24:27;6.30;99.90
23114;DHT22;11726;50.122;8.832;2022-11-11T00:27:13;6.20;99.90
23114;DHT22;11726;50.122;8.832;2022-11-11T00:29:40;6.30;99.90
23114;DHT22;11726;50.122;8.832;2022-11-11T00:32:11;6.30;99.90
23114;DHT22;11726;50.122;8.832;2022-11-11T00:34:54;6.20;99.90
23114;DHT22;11726;50.122;8.832;2022-11-11T00:37:41;6.30;99.90
23114;DHT22;11726;50.122;8.832;2022-11-11T00:40:09;6.40;99.90
23114;DHT22;11726;50.122;8.832;2022-11-11T00:42:36;6.30;99.90
23114;DHT22;11726;50.122;8.832;2022-11-11T00:45:03;6.30;99.90
23114;DHT22;11726;50.122;8.832;2022-11-11T00:47:30;6.20;99.90
23114;DHT22;11726;50.122;8.832;2022-11-11T00:50:19;6.20;99.90
23114;DHT22;11726;50.122;8.832;2022-11-11T00:53:12;6.30;99.90
23114;DHT22;11726;50.122;8.832;2022-11-11T00:55:39;6.20;99.90
23114;DHT22;11726;50.122;8.832;2022-11-11T00:58:06;6.30;99.90
23114;DHT22;11726;50.122;8.832;2022-11-11T01:00:33;6.30;99.90
23114;DHT22;11726;50.122;8.832;2022-11-11T01:02:59;6.20;99.90
23114;DHT22;11726;50.122;8.832;2022-11-11T01:05:26;6.20;99.90
23114;DHT22;11726;50.122;8.832;2022-11-11T01:07:53;6.10;99.90
23114;DHT22;11726;50.122;8.832;2022-11-11T01:10:20;6.00;99.90
23114;DHT22;11726;50.122;8.832;2022-11-11T01:13:15;6.10;99.90
23114;DHT22;11726;50.122;8.832;2022-11-11T01:15:44;6.10;99.90
23114;DHT22;11726;50.122;8.832;2022-11-11T01:18:14;6.00;99.90
23114;DHT22;11726;50.122;8.832;2022-11-11T01:20:42;5.80;99.90
23114;DHT22;11726;50.122;8.832;2022-11-11T01:23:11;5.80;99.90
23114;DHT22;11726;50.122;8.832;2022-11-11T01:25:39;5.80;99.90
23114;DHT22;11726;50.122;8.832;2022-11-11T01:28:07;5.90;99.90
23114;DHT22;11726;50.122;8.832;2022-11-11T01:30:34;5.80;99.90
23114;DHT22;11726;50.122;8.832;2022-11-11T01:33:02;5.80;99.90
23114;DHT22;11726;50.122;8.832;2022-11-11T01:35:29;5.80;99.90
23114;DHT22;11726;50.122;8.832;2022-11-11T01:37:57;5.80;99.90
23114;DHT22;11726;50.122;8.832;2022-11-11T01:40:25;5.80;99.90
23114;DHT22;11726;50.122;8.832;2022-11-11T01:43:12;5.80;99.90
23114;DHT22;11726;50.122;8.832;2022-11-11T01:45:57;5.80;99.90
23114;DHT22;11726;50.122;8.832;2022-11-11T01:48:34;5.80;99.90
23114;DHT22;11726;50.122;8.832;2022-11-11T01:54:00;5.90;99.90
23114;DHT22;11726;50.122;8.832;2022-11-11T01:56:28;5.90;99.90
23114;DHT22;11726;50.122;8.832;2022-11-11T01:58:58;5.90;99.90
23114;DHT22;11726;50.122;8.832;2022-11-11T02:01:26;5.80;99.90
23114;DHT22;11726;50.122;8.832;2022-11-11T02:03:55;5.80;99.90
23114;DHT22;11726;50.122;8.832;2022-11-11T02:06:42;5.80;99.90
23114;DHT22;11726;50.122;8.832;2022-11-11T02:09:09;5.70;99.90
23114;DHT22;11726;50.122;8.832;2022-11-11T02:11:38;5.80;99.90
23114;DHT22;11726;50.122;8.832;2022-11-11T02:14:25;5.80;99.90
23114;DHT22;11726;50.122;8.832;2022-11-11T02:17:08;5.80;99.90
23114;DHT22;11726;50.122;8.832;2022-11-11T02:19:56;5.80;99.90
23114;DHT22;11726;50.122;8.832;2022-11-11T02:22:28;5.80;99.90
23114;DHT22;11726;50.122;8.832;2022-11-11T02:24:58;5.80;99.90
23114;DHT22;11726;50.122;8.832;2022-11-11T02:27:28;5.80;99.90
23114;DHT22;11726;50.122;8.832;2022-11-11T02:29:57;5.80;99.90
23114;DHT22;11726;50.122;8.832;2022-11-11T02:32:25;5.80;99.90
23114;DHT22;11726;50.122;8.832;2022-11-11T02:34:52;5.80;99.90
23114;DHT22;11726;50.122;8.832;2022-11-11T02:37:22;5.80;99.90
23114;DHT22;11726;50.122;8.832;2022-11-11T02:39:51;5.80;99.90
23114;DHT22;11726;50.122;8.832;2022-11-11T02:42:34;5.80;99.90
23114;DHT22;11726;50.122;8.832;2022-11-11T02:45:02;5.90;99.90
23114;DHT22;11726;50.122;8.832;2022-11-11T02:47:29;5.80;99.90
23114;DHT22;11726;50.122;8.832;2022-11-11T02:49:56;5.90;99.90
23114;DHT22;11726;50.122;8.832;2022-11-11T02:52:22;5.90;99.90
23114;DHT22;11726;50.122;8.832;2022-11-11T02:54:49;5.70;99.90
23114;DHT22;11726;50.122;8.832;2022-11-11T02:57:16;5.70;99.90
23114;DHT22;11726;50.122;8.832;2022-11-11T02:59:43;5.80;99.90
23114;DHT22;11726;50.122;8.832;2022-11-11T03:02:10;5.80;99.90
23114;DHT22;11726;50.122;8.832;2022-11-11T03:04:37;5.80;99.90
23114;DHT22;11726;50.122;8.832;2022-11-11T03:07:04;5.80;99.90
23114;DHT22;11726;50.122;8.832;2022-11-11T03:09:32;5.80;99.90
23114;DHT22;11726;50.122;8.832;2022-11-11T03:11:59;5.70;99.90
23114;DHT22;11726;50.122;8.832;2022-11-11T03:14:25;5.70;99.90
23114;DHT22;11726;50.122;8.832;2022-11-11T03:16:52;5.70;99.90
23114;DHT22;11726;50.122;8.832;2022-11-11T03:19:38;5.70;99.90
23114;DHT22;11726;50.122;8.832;2022-11-11T03:22:04;5.70;99.90
23114;DHT22;11726;50.122;8.832;2022-11-11T03:24:51;5.80;99.90
23114;DHT22;11726;50.122;8.832;2022-11-11T03:27:36;5.80;99.90
23114;DHT22;11726;50.122;8.832;2022-11-11T03:30:03;5.80;99.90
23114;DHT22;11726;50.122;8.832;2022-11-11T03:32:29;5.80;99.90
23114;DHT22;11726;50.122;8.832;2022-11-11T03:34:56;5.70;99.90
23114;DHT22;11726;50.122;8.832;2022-11-11T03:37:23;5.70;99.90
23114;DHT22;11726;50.122;8.832;2022-11-11T03:40:08;5.60;99.90
23114;DHT22;11726;50.122;8.832;2022-11-11T03:42:35;5.50;99.90
23114;DHT22;11726;50.122;8.832;2022-11-11T03:45:02;5.40;99.90
23114;DHT22;11726;50.122;8.832;2022-11-11T03:47:29;5.50;99.90
23114;DHT22;11726;50.122;8.832;2022-11-11T03:49:56;5.40;99.90
23114;DHT22;11726;50.122;8.832;2022-11-11T03:52:22;5.30;99.90
23114;DHT22;11726;50.122;8.832;2022-11-11T03:54:49;5.20;99.90
23114;DHT22;11726;50.122;8.832;2022-11-11T03:57:15;5.20;99.90
23114;DHT22;11726;50.122;8.832;2022-11-11T03:59:58;5.20;99.90
23114;DHT22;11726;50.122;8.832;2022-11-11T04:02:24;5.20;99.90
23114;DHT22;11726;50.122;8.832;2022-11-11T04:05:09;5.20;99.90
23114;DHT22;11726;50.122;8.832;2022-11-11T04:07:55;5.20;99.90
23114;DHT22;11726;50.122;8.832;2022-11-11T04:10:40;5.10;99.90
23114;DHT22;11726;50.122;8.832;2022-11-11T04:13:07;5.20;99.90
23114;DHT22;11726;50.122;8.832;2022-11-11T04:15:52;5.20;99.90
23114;DHT22;11726;50.122;8.832;2022-11-11T04:18:32;5.30;99.90
23114;DHT22;11726;50.122;8.832;2022-11-11T04:21:17;5.30;99.90
23114;DHT22;11726;50.122;8.832;2022-11-11T04:24:02;5.20;99.90
23114;DHT22;11726;50.122;8.832;2022-11-11T04:26:49;5.20;99.90
23114;DHT22;11726;50.122;8.832;2022-11-11T04:29:16;5.00;99.90
23114;DHT22;11726;50.122;8.832;2022-11-11T04:32:06;5.00;99.90
23114;DHT22;11726;50.122;8.832;2022-11-11T04:34:53;5.10;99.90
23114;DHT22;11726;50.122;8.832;2022-11-11T04:37:22;5.00;99.90
23114;DHT22;11726;50.122;8.832;2022-11-11T04:39:49;5.00;99.90
23114;DHT22;11726;50.122;8.832;2022-11-11T04:42:35;5.00;99.90
23114;DHT22;11726;50.122;8.832;2022-11-11T04:45:03;5.00;99.90
23114;DHT22;11726;50.122;8.832;2022-11-11T04:48:07;5.00;99.90
23114;DHT22;11726;50.122;8.832;2022-11-11T04:50:36;5.10;99.90
23114;DHT22;11726;50.122;8.832;2022-11-11T04:53:07;5.00;99.90
23114;DHT22;11726;50.122;8.832;2022-11-11T04:55:36;5.00;99.90
23114;DHT22;11726;50.122;8.832;2022-11-11T04:58:24;5.00;99.90
23114;DHT22;11726;50.122;8.832;2022-11-11T05:00:51;5.00;99.90
23114;DHT22;11726;50.122;8.832;2022-11-11T05:03:18;5.00;99.90
23114;DHT22;11726;50.122;8.832;2022-11-11T05:08:36;5.00;99.90
23114;DHT22;11726;50.122;8.832;2022-11-11T05:11:23;5.00;99.90
23114;DHT22;11726;50.122;8.832;2022-11-11T05:13:51;5.00;99.90
23114;DHT22;11726;50.122;8.832;2022-11-11T05:16:42;5.00;99.90
23114;DHT22;11726;50.122;8.832;2022-11-11T05:19:28;5.00;99.90
23114;DHT22;11726;50.122;8.832;2022-11-11T05:22:33;5.00;99.90
23114;DHT22;11726;50.122;8.832;2022-11-11T05:25:00;5.10;99.90
23114;DHT22;11726;50.122;8.832;2022-11-11T05:27:46;5.10;99.90
23114;DHT22;11726;50.122;8.832;2022-11-11T05:30:13;5.20;99.90
23114;DHT22;11726;50.122;8.832;2022-11-11T05:32:41;5.20;99.90
23114;DHT22;11726;50.122;8.832;2022-11-11T05:35:08;5.20;99.90
23114;DHT22;11726;50.122;8.832;2022-11-11T05:37:35;5.10;99.90
23114;DHT22;11726;50.122;8.832;2022-11-11T05:40:02;5.20;99.90
23114;DHT22;11726;50.122;8.832;2022-11-11T05:42:30;5.00;99.90
23114;DHT22;11726;50.122;8.832;2022-11-11T05:44:57;4.90;99.90
23114;DHT22;11726;50.122;8.832;2022-11-11T05:47:23;4.90;99.90
23114;DHT22;11726;50.122;8.832;2022-11-11T05:49:50;4.80;99.90
23114;DHT22;11726;50.122;8.832;2022-11-11T05:52:17;4.80;99.90
23114;DHT22;11726;50.122;8.832;2022-11-11T05:54:44;5.00;99.90
23114;DHT22;11726;50.122;8.832;2022-11-11T05:57:11;5.10;99.90
23114;DHT22;11726;50.122;8.832;2022-11-11T05:59:38;5.10;99.90
23114;DHT22;11726;50.122;8.832;2022-11-11T06:02:04;5.10;99.90
23114;DHT22;11726;50.122;8.832;2022-11-11T06:04:31;5.10;99.90
23114;DHT22;11726;50.122;8.832;2022-11-11T06:07:00;5.10;99.90
23114;DHT22;11726;50.122;8.832;2022-11-11T06:09:27;5.10;99.90
23114;DHT22;11726;50.122;8.832;2022-11-11T06:11:53;5.20;99.90
23114;DHT22;11726;50.122;8.832;2022-11-11T06:14:20;5.20;99.90
23114;DHT22;11726;50.122;8.832;2022-11-11T06:16:47;5.20;99.90
23114;DHT22;11726;50.122;8.832;2022-11-11T06:19:14;5.20;99.90
23114;DHT22;11726;50.122;8.832;2022-11-11T06:21:40;5.20;99.90
23114;DHT22;11726;50.122;8.832;2022-11-11T06:24:23;5.10;99.90
23114;DHT22;11726;50.122;8.832;2022-11-11T06:26:53;5.10;99.90
23114;DHT22;11726;50.122;8.832;2022-11-11T06:29:20;5.10;99.90
23114;DHT22;11726;50.122;8.832;2022-11-11T06:31:47;5.20;99.90
23114;DHT22;11726;50.122;8.832;2022-11-11T06:34:14;5.20;99.90
23114;DHT22;11726;50.122;8.832;2022-11-11T06:36:41;5.20;99.90
23114;DHT22;11726;50.122;8.832;2022-11-11T06:39:08;5.20;99.90
23114;DHT22;11726;50.122;8.832;2022-11-11T06:41:34;5.30;99.90
23114;DHT22;11726;50.122;8.832;2022-11-11T06:44:01;5.30;99.90
23114;DHT22;11726;50.122;8.832;2022-11-11T06:46:28;5.40;99.90
23114;DHT22;11726;50.122;8.832;2022-11-11T06:48:55;5.40;99.90
23114;DHT22;11726;50.122;8.832;2022-11-11T06:51:22;5.30;99.90
23114;DHT22;11726;50.122;8.832;2022-11-11T06:53:49;5.40;99.90
23114;DHT22;11726;50.122;8.832;2022-11-11T06:56:16;5.50;99.90
23114;DHT22;11726;50.122;8.832;2022-11-11T06:58:43;5.30;99.90
23114;DHT22;11726;50.122;8.832;2022-11-11T07:01:11;5.30;99.90
23114;DHT22;11726;50.122;8.832;2022-11-11T07:03:39;5.40;99.90
23114;DHT22;11726;50.122;8.832;2022-11-11T07:06:05;5.40;99.90
23114;DHT22;11726;50.122;8.832;2022-11-11T07:08:32;5.50;99.90
23114;DHT22;11726;50.122;8.832;2022-11-11T07:10:59;5.40;99.90
23114;DHT22;11726;50.122;8.832;2022-11-11T07:13:34;5.40;99.90
23114;DHT22;11726;50.122;8.832;2022-11-11T07:16:01;5.50;99.90
23114;DHT22;11726;50.122;8.832;2022-11-11T07:18:28;5.60;99.90
23114;DHT22;11726;50.122;8.832;2022-11-11T07:20:54;5.60;99.90
23114;DHT22;11726;50.122;8.832;2022-11-11T07:23:21;5.70;99.90
23114;DHT22;11726;50.122;8.832;2022-11-11T07:25:48;5.70;99.90
23114;DHT22;11726;50.122;8.832;2022-11-11T07:28:14;5.70;99.90
23114;DHT22;11726;50.122;8.832;2022-11-11T07:30:41;5.80;99.90
23114;DHT22;11726;50.122;8.832;2022-11-11T07:33:07;5.80;99.90
23114;DHT22;11726;50.122;8.832;2022-11-11T07:35:34;5.70;99.90
23114;DHT22;11726;50.122;8.832;2022-11-11T07:38:01;5.70;99.90
23114;DHT22;11726;50.122;8.832;2022-11-11T07:40:27;5.70;99.90
23114;DHT22;11726;50.122;8.832;2022-11-11T07:42:54;5.80;99.90
23114;DHT22;11726;50.122;8.832;2022-11-11T07:45:21;5.60;99.90
23114;DHT22;11726;50.122;8.832;2022-11-11T07:47:47;5.60;99.90
23114;DHT22;11726;50.122;8.832;2022-11-11T07:50:14;5.70;99.90
23114;DHT22;11726;50.122;8.832;2022-11-11T07:52:45;5.70;99.90
23114;DHT22;11726;50.122;8.832;2022-11-11T07:55:13;5.80;99.90
23114;DHT22;11726;50.122;8.832;2022-11-11T07:57:39;5.80;99.90
23114;DHT22;11726;50.122;8.832;2022-11-11T08:00:07;5.90;99.90
23114;DHT22;11726;50.122;8.832;2022-11-11T08:02:33;5.90;99.90
23114;DHT22;11726;50.122;8.832;2022-11-11T08:05:00;5.80;99.90
23114;DHT22;11726;50.122;8.832;2022-11-11T08:07:27;5.80;99.90
23114;DHT22;11726;50.122;8.832;2022-11-11T08:09:53;5.90;99.90
23114;DHT22;11726;50.122;8.832;2022-11-11T08:12:20;5.90;99.90
23114;DHT22;11726;50.122;8.832;2022-11-11T08:15:06;6.10;99.90
23114;DHT22;11726;50.122;8.832;2022-11-11T08:17:37;6.20;99.90
23114;DHT22;11726;50.122;8.832;2022-11-11T08:20:09;6.30;99.90
23114;DHT22;11726;50.122;8.832;2022-11-11T08:22:40;6.30;99.90
23114;DHT22;11726;50.122;8.832;2022-11-11T08:25:09;6.30;99.90
23114;DHT22;11726;50.122;8.832;2022-11-11T08:27:37;6.40;99.90
23114;DHT22;11726;50.122;8.832;2022-11-11T08:30:06;6.50;99.90
23114;DHT22;11726;50.122;8.832;2022-11-11T08:32:33;6.50;99.90
23114;DHT22;11726;50.122;8.832;2022-11-11T08:35:00;6.50;99.90
23114;DHT22;11726;50.122;8.832;2022-11-11T08:37:28;6.50;99.90
23114;DHT22;11726;50.122;8.832;2022-11-11T08:39:54;6.50;99.90
23114;DHT22;11726;50.122;8.832;2022-11-11T08:42:22;6.60;99.90
23114;DHT22;11726;50.122;8.832;2022-11-11T08:44:49;6.60;99.90
23114;DHT22;11726;50.122;8.832;2022-11-11T08:47:17;6.70;99.90
23114;DHT22;11726;50.122;8.832;2022-11-11T08:49:46;6.80;99.90
23114;DHT22;11726;50.122;8.832;2022-11-11T08:52:14;6.80;99.90
23114;DHT22;11726;50.122;8.832;2022-11-11T08:54:41;6.80;99.90
23114;DHT22;11726;50.122;8.832;2022-11-11T08:57:08;6.90;99.90
23114;DHT22;11726;50.122;8.832;2022-11-11T08:59:35;7.00;99.90
23114;DHT22;11726;50.122;8.832;2022-11-11T09:02:01;7.00;99.90
23114;DHT22;11726;50.122;8.832;2022-11-11T09:04:28;7.00;99.90
23114;DHT22;11726;50.122;8.832;2022-11-11T09:07:11;7.00;99.90
23114;DHT22;11726;50.122;8.832;2022-11-11T09:09:38;7.10;99.90
23114;DHT22;11726;50.122;8.832;2022-11-11T09:12:04;7.10;99.90
23114;DHT22;11726;50.122;8.832;2022-11-11T09:14:31;7.10;99.90
23114;DHT22;11726;50.122;8.832;2022-11-11T09:16:58;7.20;99.90
23114;DHT22;11726;50.122;8.832;2022-11-11T09:19:24;7.30;99.90
23114;DHT22;11726;50.122;8.832;2022-11-11T09:21:51;7.30;99.90
23114;DHT22;11726;50.122;8.832;2022-11-11T09:24:18;7.30;99.90
23114;DHT22;11726;50.122;8.832;2022-11-11T09:26:49;7.40;99.90
23114;DHT22;11726;50.122;8.832;2022-11-11T09:29:16;7.50;99.90
23114;DHT22;11726;50.122;8.832;2022-11-11T09:31:43;7.40;99.90
23114;DHT22;11726;50.122;8.832;2022-11-11T09:34:12;7.40;99.90
23114;DHT22;11726;50.122;8.832;2022-11-11T09:36:40;7.40;99.90
23114;DHT22;11726;50.122;8.832;2022-11-11T09:39:06;7.50;99.90
23114;DHT22;11726;50.122;8.832;2022-11-11T09:49:47;7.70;99.90
23114;DHT22;11726;50.122;8.832;2022-11-11T09:52:18;7.70;99.90
23114;DHT22;11726;50.122;8.832;2022-11-11T09:55:00;7.80;99.90
23114;DHT22;11726;50.122;8.832;2022-11-11T10:00:32;7.90;99.90
23114;DHT22;11726;50.122;8.832;2022-11-11T10:03:16;7.90;99.90
23114;DHT22;11726;50.122;8.832;2022-11-11T10:06:06;7.90;99.90
23114;DHT22;11726;50.122;8.832;2022-11-11T10:08:39;8.00;99.90
23114;DHT22;11726;50.122;8.832;2022-11-11T10:11:19;7.90;99.90
23114;DHT22;11726;50.122;8.832;2022-11-11T10:13:47;8.00;99.90
23114;DHT22;11726;50.122;8.832;2022-11-11T10:19:40;8.00;99.90
23114;DHT22;11726;50.122;8.832;2022-11-11T10:22:20;8.10;99.90
23114;DHT22;11726;50.122;8.832;2022-11-11T10:25:07;8.20;99.90
23114;DHT22;11726;50.122;8.832;2022-11-11T10:27:34;8.20;99.90
23114;DHT22;11726;50.122;8.832;2022-11-11T10:30:15;8.20;99.90
23114;DHT22;11726;50.122;8.832;2022-11-11T10:32:51;8.10;99.90
23114;DHT22;11726;50.122;8.832;2022-11-11T10:35:27;8.10;99.90
23114;DHT22;11726;50.122;8.832;2022-11-11T10:40:38;7.90;99.90
23114;DHT22;11726;50.122;8.832;2022-11-11T10:43:36;8.00;99.90
23114;DHT22;11726;50.122;8.832;2022-11-11T10:46:41;8.10;99.90
23114;DHT22;11726;50.122;8.832;2022-11-11T10:49:20;8.20;99.90
23114;DHT22;11726;50.122;8.832;2022-11-11T10:51:57;8.40;99.90
23114;DHT22;11726;50.122;8.832;2022-11-11T10:55:06;8.40;99.90
23114;DHT22;11726;50.122;8.832;2022-11-11T10:57:42;8.40;99.90
23114;DHT22;11726;50.122;8.832;2022-11-11T11:00:12;8.40;99.90
23114;DHT22;11726;50.122;8.832;2022-11-11T11:05:25;8.40;99.90
23114;DHT22;11726;50.122;8.832;2022-11-11T11:07:56;8.40;99.90
23114;DHT22;11726;50.122;8.832;2022-11-11T11:10:36;8.30;99.90
23114;DHT22;11726;50.122;8.832;2022-11-11T11:14:02;8.40;99.90
23114;DHT22;11726;50.122;8.832;2022-11-11T11:16:41;8.60;99.90
23114;DHT22;11726;50.122;8.832;2022-11-11T11:19:17;8.60;99.90
23114;DHT22;11726;50.122;8.832;2022-11-11T11:21:49;8.50;99.90
23114;DHT22;11726;50.122;8.832;2022-11-11T11:24:42;8.50;99.90
23114;DHT22;11726;50.122;8.832;2022-11-11T11:27:09;8.60;99.90
23114;DHT22;11726;50.122;8.832;2022-11-11T11:29:43;8.50;99.90
23114;DHT22;11726;50.122;8.832;2022-11-11T11:32:13;8.60;99.90
23114;DHT22;11726;50.122;8.832;2022-11-11T11:34:51;8.60;99.90
23114;DHT22;11726;50.122;8.832;2022-11-11T11:37:20;8.70;99.90
23114;DHT22;11726;50.122;8.832;2022-11-11T11:39:48;8.70;99.90
23114;DHT22;11726;50.122;8.832;2022-11-11T11:42:37;8.70;99.90
23114;DHT22;11726;50.122;8.832;2022-11-11T11:45:24;8.70;99.90
23114;DHT22;11726;50.122;8.832;2022-11-11T11:48:09;8.80;99.90
23114;DHT22;11726;50.122;8.832;2022-11-11T11:53:55;8.80;99.90
23114;DHT22;11726;50.122;8.832;2022-11-11T11:56:41;8.90;99.90
23114;DHT22;11726;50.122;8.832;2022-11-11T12:16:03;9.30;99.90
23114;DHT22;11726;50.122;8.832;2022-11-11T12:19:00;9.30;99.90
23114;DHT22;11726;50.122;8.832;2022-11-11T12:21:41;9.30;99.90
23114;DHT22;11726;50.122;8.832;2022-11-11T12:24:30;9.40;99.90
23114;DHT22;11726;50.122;8.832;2022-11-11T12:30:21;9.20;99.90
23114;DHT22;11726;50.122;8.832;2022-11-11T12:32:51;9.20;99.90
23114;DHT22;11726;50.122;8.832;2022-11-11T12:35:28;9.20;99.90
23114;DHT22;11726;50.122;8.832;2022-11-11T12:38:22;9.30;99.90
23114;DHT22;11726;50.122;8.832;2022-11-11T12:43:51;9.40;99.90
23114;DHT22;11726;50.122;8.832;2022-11-11T12:49:36;9.20;99.90
23114;DHT22;11726;50.122;8.832;2022-11-11T12:52:43;9.20;99.90
23114;DHT22;11726;50.122;8.832;2022-11-11T12:55:50;9.20;99.90
23114;DHT22;11726;50.122;8.832;2022-11-11T13:06:24;9.60;99.90
23114;DHT22;11726;50.122;8.832;2022-11-11T13:08:56;9.70;99.90
23114;DHT22;11726;50.122;8.832;2022-11-11T13:11:30;9.70;99.90
23114;DHT22;11726;50.122;8.832;2022-11-11T13:16:51;9.70;99.90
23114;DHT22;11726;50.122;8.832;2022-11-11T13:19:33;9.80;99.90
23114;DHT22;11726;50.122;8.832;2022-11-11T13:24:34;9.70;99.90
23114;DHT22;11726;50.122;8.832;2022-11-11T13:27:13;9.70;99.90
23114;DHT22;11726;50.122;8.832;2022-11-11T13:32:47;9.90;99.90
23114;DHT22;11726;50.122;8.832;2022-11-11T13:35:27;9.80;99.90
23114;DHT22;11726;50.122;8.832;2022-11-11T13:37:55;9.90;99.90
23114;DHT22;11726;50.122;8.832;2022-11-11T13:40:33;9.90;99.90
23114;DHT22;11726;50.122;8.832;2022-11-11T13:43:02;9.90;99.90
23114;DHT22;11726;50.122;8.832;2022-11-11T13:45:33;9.80;99.90
23114;DHT22;11726;50.122;8.832;2022-11-11T13:48:02;9.70;99.90
23114;DHT22;11726;50.122;8.832;2022-11-11T13:50:40;9.80;99.90
23114;DHT22;11726;50.122;8.832;2022-11-11T13:53:35;9.70;99.90
23114;DHT22;11726;50.122;8.832;2022-11-11T13:56:03;9.60;99.90
23114;DHT22;11726;50.122;8.832;2022-11-11T13:58:32;9.60;99.90
23114;DHT22;11726;50.122;8.832;2022-11-11T14:01:06;9.50;99.90
23114;DHT22;11726;50.122;8.832;2022-11-11T14:03:36;9.40;99.90
23114;DHT22;11726;50.122;8.832;2022-11-11T14:06:28;9.40;99.90
23114;DHT22;11726;50.122;8.832;2022-11-11T14:08:55;9.50;99.90
23114;DHT22;11726;50.122;8.832;2022-11-11T14:11:29;9.50;99.90
23114;DHT22;11726;50.122;8.832;2022-11-11T14:13:58;9.50;99.90
23114;DHT22;11726;50.122;8.832;2022-11-11T14:21:54;9.50;99.90
23114;DHT22;11726;50.122;8.832;2022-11-11T14:24:39;9.50;99.90
23114;DHT22;11726;50.122;8.832;2022-11-11T14:29:36;9.70;99.90
23114;DHT22;11726;50.122;8.832;2022-11-11T14:35:10;9.60;99.90
23114;DHT22;11726;50.122;8.832;2022-11-11T14:40:44;9.90;99.90
23114;DHT22;11726;50.122;8.832;2022-11-11T14:43:37;9.80;99.90
23114;DHT22;11726;50.122;8.832;2022-11-11T14:46:10;9.90;99.90
23114;DHT22;11726;50.122;8.832;2022-11-11T14:48:59;10.00;99.90
23114;DHT22;11726;50.122;8.832;2022-11-11T14:51:47;9.80;99.90
23114;DHT22;11726;50.122;8.832;2022-11-11T14:56:59;9.90;99.90
23114;DHT22;11726;50.122;8.832;2022-11-11T14:59:29;9.80;99.90
23114;DHT22;11726;50.122;8.832;2022-11-11T15:01:58;9.80;99.90
23114;DHT22;11726;50.122;8.832;2022-11-11T15:04:26;9.70;99.90
23114;DHT22;11726;50.122;8.832;2022-11-11T15:06:58;9.70;99.90
23114;DHT22;11726;50.122;8.832;2022-11-11T15:09:41;9.70;99.90
23114;DHT22;11726;50.122;8.832;2022-11-11T15:15:13;9.60;99.90
23114;DHT22;11726;50.122;8.832;2022-11-11T15:17:57;9.60;99.90
23114;DHT22;11726;50.122;8.832;2022-11-11T15:20:35;9.50;99.90
23114;DHT22;11726;50.122;8.832;2022-11-11T15:28:52;9.50;99.90
23114;DHT22;11726;50.122;8.832;2022-11-11T15:37:01;9.30;99.90
23114;DHT22;11726;50.122;8.832;2022-11-11T15:39:51;9.20;99.90
23114;DHT22;11726;50.122;8.832;2022-11-11T15:45:00;9.20;99.90
23114;DHT22;11726;50.122;8.832;2022-11-11T15:47:28;9.20;99.90
23114;DHT22;11726;50.122;8.832;2022-11-11T15:50:00;9.10;99.90
23114;DHT22;11726;50.122;8.832;2022-11-11T15:52:33;9.00;99.90
23114;DHT22;11726;50.122;8.832;2022-11-11T15:55:17;9.00;99.90
23114;DHT22;11726;50.122;8.832;2022-11-11T15:57:45;9.00;99.90
23114;DHT22;11726;50.122;8.832;2022-11-11T16:00:28;8.90;99.90
23114;DHT22;11726;50.122;8.832;2022-11-11T16:02:55;8.90;99.90
23114;DHT22;11726;50.122;8.832;2022-11-11T16:05:25;8.90;99.90
23114;DHT22;11726;50.122;8.832;2022-11-11T16:07:54;8.80;99.90
23114;DHT22;11726;50.122;8.832;2022-11-11T16:10:29;8.90;99.90
23114;DHT22;11726;50.122;8.832;2022-11-11T16:15:55;8.90;99.90
23114;DHT22;11726;50.122;8.832;2022-11-11T16:18:27;8.80;99.90
23114;DHT22;11726;50.122;8.832;2022-11-11T16:21:05;8.70;99.90
23114;DHT22;11726;50.122;8.832;2022-11-11T16:23:33;8.60;99.90
23114;DHT22;11726;50.122;8.832;2022-11-11T16:26:00;8.60;99.90
23114;DHT22;11726;50.122;8.832;2022-11-11T16:28:38;8.60;99.90
23114;DHT22;11726;50.122;8.832;2022-11-11T16:34:32;8.70;99.90
23114;DHT22;11726;50.122;8.832;2022-11-11T16:37:04;8.70;99.90
23114;DHT22;11726;50.122;8.832;2022-11-11T16:39:35;8.70;99.90
23114;DHT22;11726;50.122;8.832;2022-11-11T16:42:15;8.50;99.90
23114;DHT22;11726;50.122;8.832;2022-11-11T16:44:50;8.50;99.90
23114;DHT22;11726;50.122;8.832;2022-11-11T16:52:54;8.60;99.90
23114;DHT22;11726;50.122;8.832;2022-11-11T16:55:28;8.60;99.90
23114;DHT22;11726;50.122;8.832;2022-11-11T16:58:09;8.60;99.90
23114;DHT22;11726;50.122;8.832;2022-11-11T17:00:38;8.60;99.90
23114;DHT22;11726;50.122;8.832;2022-11-11T17:03:16;8.60;99.90
23114;DHT22;11726;50.122;8.832;2022-11-11T17:06:04;8.60;99.90
23114;DHT22;11726;50.122;8.832;2022-11-11T17:08:44;8.50;99.90
23114;DHT22;11726;50.122;8.832;2022-11-11T17:14:03;8.50;99.90
23114;DHT22;11726;50.122;8.832;2022-11-11T17:16:30;8.60;99.90
23114;DHT22;11726;50.122;8.832;2022-11-11T17:19:01;8.50;99.90
23114;DHT22;11726;50.122;8.832;2022-11-11T17:21:28;8.50;99.90
23114;DHT22;11726;50.122;8.832;2022-11-11T17:23:55;8.50;99.90
23114;DHT22;11726;50.122;8.832;2022-11-11T17:26:21;8.50;99.90
23114;DHT22;11726;50.122;8.832;2022-11-11T17:28:48;8.50;99.90
23114;DHT22;11726;50.122;8.832;2022-11-11T17:31:15;8.30;99.90
23114;DHT22;11726;50.122;8.832;2022-11-11T17:33:41;8.30;99.90
23114;DHT22;11726;50.122;8.832;2022-11-11T17:36:08;8.30;99.90
23114;DHT22;11726;50.122;8.832;2022-11-11T17:38:35;8.20;99.90
23114;DHT22;11726;50.122;8.832;2022-11-11T17:41:05;8.20;99.90
23114;DHT22;11726;50.122;8.832;2022-11-11T17:43:32;8.20;99.90
23114;DHT22;11726;50.122;8.832;2022-11-11T17:46:02;8.20;99.90
23114;DHT22;11726;50.122;8.832;2022-11-11T17:48:30;8.10;99.90
23114;DHT22;11726;50.122;8.832;2022-11-11T17:50:57;8.10;99.90
23114;DHT22;11726;50.122;8.832;2022-11-11T17:53:24;8.00;99.90
23114;DHT22;11726;50.122;8.832;2022-11-11T17:55:51;8.10;99.90
23114;DHT22;11726;50.122;8.832;2022-11-11T17:58:18;8.10;99.90
23114;DHT22;11726;50.122;8.832;2022-11-11T18:00:45;8.10;99.90
23114;DHT22;11726;50.122;8.832;2022-11-11T18:03:12;8.10;99.90
23114;DHT22;11726;50.122;8.832;2022-11-11T18:05:38;8.20;99.90
23114;DHT22;11726;50.122;8.832;2022-11-11T18:08:05;8.20;99.90
23114;DHT22;11726;50.122;8.832;2022-11-11T18:10:32;8.10;99.90
23114;DHT22;11726;50.122;8.832;2022-11-11T18:12:58;8.20;99.90
23114;DHT22;11726;50.122;8.832;2022-11-11T18:15:25;8.20;99.90
23114;DHT22;11726;50.122;8.832;2022-11-11T18:17:52;8.10;99.90
23114;DHT22;11726;50.122;8.832;2022-11-11T18:20:18;8.00;99.90